createdAt,value
2022-09-01T00:00:15.379Z,132.65
2022-09-01T00:01:15.483Z,135.78
2022-09-01T00:02:15.695Z,137.12
2022-09-01T00:03:15.755Z,139.06
2022-09-01T00:04:16.105Z,136.78
2022-09-01T00:05:15.996Z,133.82
2022-09-01T00:06:16.153Z,130.27
2022-09-01T00:07:16.255Z,129.96
2022-09-01T00:08:18.461Z,132.76
2022-09-01T00:09:16.523Z,137.01
2022-09-01T00:10:16.574Z,138.37
2022-09-01T00:11:16.664Z,141.18
2022-09-01T00:12:16.813Z,141.90
2022-09-01T00:13:16.914Z,141.18
2022-09-01T00:14:29.481Z,137.91
2022-09-01T00:15:18.183Z,136.67
2022-09-01T00:16:17.248Z,138.03
2022-09-01T00:17:17.321Z,138.49
2022-09-01T00:18:17.503Z,139.29
2022-09-01T00:19:17.703Z,138.95
2022-09-01T00:20:20.543Z,141.66
2022-09-01T00:21:17.843Z,142.26
2022-09-01T00:22:17.941Z,143.24
2022-09-01T00:23:18.092Z,142.26
2022-09-01T00:24:18.306Z,142.38
2022-09-01T00:25:18.421Z,143.36
2022-09-01T00:26:18.425Z,142.99
2022-09-01T00:27:18.536Z,142.51
2022-09-01T00:28:18.868Z,143.12
2022-09-01T00:29:18.841Z,143.36
2022-09-01T00:30:19.057Z,143.12
2022-09-01T00:31:19.136Z,143.24
2022-09-01T00:32:19.172Z,145.11
2022-09-01T00:33:19.270Z,145.87
2022-09-01T00:34:19.479Z,146.90
2022-09-01T00:35:19.518Z,147.68
2022-09-01T00:36:19.680Z,147.94
2022-09-01T00:37:19.777Z,148.86
2022-09-01T00:38:20.301Z,147.29
2022-09-01T00:39:20.210Z,148.99
2022-09-01T00:40:20.427Z,148.46
2022-09-01T00:41:20.319Z,147.42
2022-09-01T00:42:20.429Z,142.75
2022-09-01T00:43:20.529Z,140.11
2022-09-01T00:44:20.789Z,141.06
2022-09-01T00:45:20.918Z,142.75
2022-09-01T00:46:20.906Z,139.99
2022-09-01T00:47:21.045Z,138.95
2022-09-01T00:48:21.299Z,135.89
2022-09-01T00:49:21.277Z,132.12
2022-09-01T00:50:21.524Z,127.19
2022-09-01T00:51:21.585Z,116.69
2022-09-01T00:52:21.688Z,107.04
2022-09-01T00:53:21.836Z,106.36
2022-09-01T00:54:21.948Z,103.91
2022-09-01T00:55:22.096Z,98.33
2022-09-01T00:56:22.196Z,95.19
2022-09-01T00:57:22.285Z,93.40
2022-09-01T00:58:22.488Z,90.96
2022-09-01T00:59:22.563Z,89.11
2022-09-01T01:00:22.975Z,89.21
2022-09-01T01:01:22.910Z,88.73
2022-09-01T01:02:23.058Z,89.30
2022-09-01T01:03:23.114Z,92.37
2022-09-01T01:04:23.256Z,92.99
2022-09-01T01:05:23.487Z,91.16
2022-09-01T01:06:23.484Z,92.99
2022-09-01T01:07:23.585Z,94.78
2022-09-01T01:08:23.804Z,96.29
2022-09-01T01:09:23.864Z,97.76
2022-09-01T01:10:23.974Z,101.75
2022-09-01T01:11:24.240Z,104.56
2022-09-01T01:12:24.192Z,100.22
2022-09-01T01:13:24.290Z,95.43
2022-09-01T01:14:24.382Z,92.57
2022-09-01T01:15:24.520Z,90.27
2022-09-01T01:16:24.742Z,87.25
2022-09-01T01:17:24.773Z,87.16
2022-09-01T01:18:24.913Z,87.43
2022-09-01T01:19:25.071Z,88.45
2022-09-01T01:20:25.160Z,88.73
2022-09-01T01:21:25.332Z,88.73
2022-09-01T01:22:25.381Z,88.26
2022-09-01T01:23:25.472Z,88.45
2022-09-01T01:24:25.615Z,88.08
2022-09-01T01:25:25.721Z,85.64
2022-09-01T01:26:25.957Z,85.72
2022-09-01T01:27:26.037Z,86.52
2022-09-01T01:28:26.080Z,86.43
2022-09-01T01:29:26.228Z,86.70
2022-09-01T01:30:26.372Z,85.99
2022-09-01T01:31:26.714Z,86.08
2022-09-01T01:32:26.788Z,85.99
2022-09-01T01:33:26.730Z,84.77
2022-09-01T01:34:26.841Z,82.42
2022-09-01T01:35:26.979Z,82.02
2022-09-01T01:36:27.308Z,78.62
2022-09-01T01:37:27.187Z,78.69
2022-09-01T01:38:27.398Z,78.32
2022-09-01T01:39:27.433Z,78.03
2022-09-01T01:40:27.616Z,77.59
2022-09-01T01:41:27.808Z,79.90
2022-09-01T01:42:27.860Z,81.46
2022-09-01T01:43:27.948Z,83.24
2022-09-01T01:44:28.105Z,84.94
2022-09-01T01:45:28.208Z,85.37
2022-09-01T01:46:28.527Z,86.08
2022-09-01T01:47:28.596Z,87.43
2022-09-01T01:48:28.576Z,88.92
2022-09-01T01:49:28.676Z,91.66
2022-09-01T01:50:28.816Z,93.82
2022-09-01T01:51:28.895Z,94.89
2022-09-01T01:52:29.186Z,95.76
2022-09-01T01:53:29.125Z,94.98
2022-09-01T01:54:29.253Z,96.51
2022-09-01T01:55:29.356Z,97.25
2022-09-01T01:56:29.444Z,98.74
2022-09-01T01:57:29.715Z,99.99
2022-09-01T01:58:29.705Z,101.44
2022-09-01T01:59:29.820Z,102.88
2022-09-01T02:00:30.400Z,103.33
2022-09-01T02:01:30.125Z,103.33
2022-09-01T02:02:30.381Z,102.19
2022-09-01T02:03:30.331Z,101.20
2022-09-01T02:04:30.393Z,96.13
2022-09-01T02:05:30.532Z,92.68
2022-09-01T02:06:30.674Z,88.26
2022-09-01T02:07:32.995Z,84.00
2022-09-01T02:08:30.951Z,80.98
2022-09-01T02:09:31.032Z,79.59
2022-09-01T02:10:31.163Z,77.02
2022-09-01T02:11:31.319Z,75.97
2022-09-01T02:12:31.562Z,74.94
2022-09-01T02:13:31.621Z,74.54
2022-09-01T02:14:31.692Z,75.15
2022-09-01T02:15:31.798Z,75.01
2022-09-01T02:16:31.965Z,74.28
2022-09-01T02:17:31.991Z,74.08
2022-09-01T02:18:32.282Z,73.95
2022-09-01T02:19:32.270Z,74.08
2022-09-01T02:20:32.380Z,74.61
2022-09-01T02:21:32.521Z,74.81
2022-09-01T02:22:32.610Z,75.69
2022-09-01T02:23:32.891Z,76.32
2022-09-01T02:24:32.889Z,76.88
2022-09-01T02:25:32.996Z,75.01
2022-09-01T02:26:33.128Z,74.54
2022-09-01T02:27:33.278Z,73.56
2022-09-01T02:28:33.529Z,70.33
2022-09-01T02:29:33.462Z,68.37
2022-09-01T02:30:34.639Z,66.89
2022-09-01T02:31:33.705Z,66.15
2022-09-01T02:32:33.858Z,66.10
2022-09-01T02:33:34.097Z,66.26
2022-09-01T02:34:34.107Z,67.11
2022-09-01T02:35:34.199Z,67.43
2022-09-01T02:36:34.346Z,68.32
2022-09-01T02:37:34.460Z,67.43
2022-09-01T02:38:34.726Z,67.71
2022-09-01T02:39:34.666Z,68.82
2022-09-01T02:40:34.810Z,69.34
2022-09-01T02:41:34.868Z,69.34
2022-09-01T02:42:34.963Z,68.04
2022-09-01T02:43:35.176Z,68.82
2022-09-01T02:44:39.466Z,68.77
2022-09-01T02:45:36.397Z,68.49
2022-09-01T02:46:35.505Z,67.76
2022-09-01T02:47:35.597Z,67.43
2022-09-01T02:48:35.829Z,66.68
2022-09-01T02:49:35.834Z,64.07
2022-09-01T02:50:35.916Z,63.68
2022-09-01T02:51:36.049Z,63.44
2022-09-01T02:52:36.125Z,62.62
2022-09-01T02:53:36.423Z,60.23
2022-09-01T02:54:36.429Z,59.37
2022-09-01T02:55:36.556Z,59.84
2022-09-01T02:56:36.703Z,60.84
2022-09-01T02:57:36.784Z,61.93
2022-09-01T02:58:37.024Z,61.93
2022-09-01T02:59:39.634Z,61.38
2022-09-01T03:00:38.093Z,61.97
2022-09-01T03:01:37.251Z,62.72
2022-09-01T03:02:37.342Z,62.16
2022-09-01T03:03:37.562Z,62.67
2022-09-01T03:04:37.610Z,61.97
2022-09-01T03:05:37.669Z,61.70
2022-09-01T03:06:37.821Z,62.34
2022-09-01T03:07:37.932Z,62.77
2022-09-01T03:08:38.140Z,64.41
2022-09-01T03:09:38.251Z,64.76
2022-09-01T03:10:38.310Z,66.31
2022-09-01T03:11:38.408Z,67.05
2022-09-01T03:12:38.540Z,68.37
2022-09-01T03:13:38.819Z,69.86
2022-09-01T03:14:38.800Z,70.51
2022-09-01T03:15:38.929Z,70.75
2022-09-01T03:16:39.086Z,70.63
2022-09-01T03:17:39.184Z,67.93
2022-09-01T03:18:40.069Z,65.32
2022-09-01T03:19:39.408Z,63.58
2022-09-01T03:20:39.561Z,63.24
2022-09-01T03:21:39.711Z,62.02
2022-09-01T03:22:39.887Z,60.53
2022-09-01T03:23:39.991Z,58.74
2022-09-01T03:24:40.085Z,58.38
2022-09-01T03:25:40.245Z,58.05
2022-09-01T03:26:40.368Z,58.58
2022-09-01T03:27:40.518Z,58.29
2022-09-01T03:28:40.807Z,58.42
2022-09-01T03:29:40.748Z,58.09
2022-09-01T03:30:40.897Z,58.54
2022-09-01T03:31:41.065Z,56.90
2022-09-01T03:32:41.186Z,55.80
2022-09-01T03:33:41.456Z,56.10
2022-09-01T03:34:41.442Z,56.36
2022-09-01T03:35:41.586Z,54.88
2022-09-01T03:36:41.737Z,55.32
2022-09-01T03:37:42.846Z,54.95
2022-09-01T03:38:42.174Z,53.17
2022-09-01T03:39:42.242Z,52.37
2022-09-01T03:40:42.295Z,52.27
2022-09-01T03:41:42.363Z,51.75
2022-09-01T03:42:42.463Z,51.46
2022-09-01T03:43:45.853Z,50.59
2022-09-01T03:44:42.705Z,50.31
2022-09-01T03:45:42.901Z,51.05
2022-09-01T03:46:43.075Z,51.46
2022-09-01T03:47:43.102Z,50.25
2022-09-01T03:48:43.333Z,49.01
2022-09-01T03:49:43.425Z,48.53
2022-09-01T03:50:43.433Z,48.78
2022-09-01T03:51:43.532Z,48.96
2022-09-01T03:52:43.655Z,49.80
2022-09-01T03:53:43.771Z,50.01
2022-09-01T03:54:43.936Z,49.98
2022-09-01T03:55:43.989Z,50.01
2022-09-01T03:56:44.081Z,50.68
2022-09-01T03:57:44.181Z,51.05
2022-09-01T03:58:44.323Z,51.53
2022-09-01T03:59:44.711Z,51.62
2022-09-01T04:00:48.687Z,52.37
2022-09-01T04:01:44.702Z,53.34
2022-09-01T04:02:44.800Z,53.24
2022-09-01T04:03:45.930Z,52.56
2022-09-01T04:04:45.091Z,52.63
2022-09-01T04:05:45.280Z,52.93
2022-09-01T04:06:45.278Z,52.86
2022-09-01T04:07:45.379Z,53.51
2022-09-01T04:08:45.467Z,53.82
2022-09-01T04:09:45.828Z,54.67
2022-09-01T04:10:45.729Z,53.78
2022-09-01T04:11:46.158Z,52.53
2022-09-01T04:12:45.978Z,51.34
2022-09-01T04:13:46.147Z,49.86
2022-09-01T04:14:46.422Z,50.22
2022-09-01T04:15:46.398Z,51.18
2022-09-01T04:16:46.585Z,51.78
2022-09-01T04:17:46.627Z,52.76
2022-09-01T04:18:46.737Z,54.56
2022-09-01T04:19:46.984Z,55.61
2022-09-01T04:20:47.037Z,56.75
2022-09-01T04:21:47.086Z,58.17
2022-09-01T04:22:47.229Z,59.58
2022-09-01T04:23:47.375Z,59.76
2022-09-01T04:24:47.705Z,60.49
2022-09-01T04:25:47.643Z,60.19
2022-09-01T04:26:47.755Z,60.19
2022-09-01T04:27:47.854Z,59.20
2022-09-01T04:28:48.014Z,57.69
2022-09-01T04:29:48.201Z,55.72
2022-09-01T04:30:48.403Z,54.63
2022-09-01T04:31:48.414Z,54.59
2022-09-01T04:32:48.512Z,55.13
2022-09-01T04:33:48.607Z,55.76
2022-09-01T04:34:48.903Z,56.79
2022-09-01T04:35:48.883Z,57.61
2022-09-01T04:36:50.005Z,58.87
2022-09-01T04:37:50.072Z,59.80
2022-09-01T04:38:49.215Z,61.02
2022-09-01T04:39:53.695Z,61.20
2022-09-01T04:40:50.542Z,61.79
2022-09-01T04:41:49.552Z,63.48
2022-09-01T04:42:49.642Z,64.12
2022-09-01T04:43:49.766Z,64.86
2022-09-01T04:44:49.901Z,65.37
2022-09-01T04:45:50.134Z,66.52
2022-09-01T04:46:50.140Z,67.32
2022-09-01T04:47:50.250Z,69.05
2022-09-01T04:48:50.358Z,70.27
2022-09-01T04:49:50.480Z,70.99
2022-09-01T04:50:50.711Z,72.66
2022-09-01T04:51:53.596Z,74.08
2022-09-01T04:52:50.900Z,74.94
2022-09-01T04:53:50.988Z,75.76
2022-09-01T04:54:51.089Z,74.28
2022-09-01T04:55:51.319Z,72.79
2022-09-01T04:56:51.475Z,72.10
2022-09-01T04:57:51.450Z,72.28
2022-09-01T04:58:51.609Z,72.22
2022-09-01T04:59:51.728Z,71.48
2022-09-01T05:00:52.259Z,72.41
2022-09-01T05:01:51.985Z,74.14
2022-09-01T05:02:52.071Z,75.21
2022-09-01T05:03:52.167Z,75.97
2022-09-01T05:04:52.308Z,76.46
2022-09-01T05:05:52.687Z,76.67
2022-09-01T05:06:52.535Z,77.09
2022-09-01T05:07:52.636Z,76.18
2022-09-01T05:08:52.774Z,72.98
2022-09-01T05:09:52.892Z,72.10
2022-09-01T05:10:53.171Z,70.81
2022-09-01T05:11:53.105Z,71.97
2022-09-01T05:12:53.224Z,72.91
2022-09-01T05:13:53.336Z,72.53
2022-09-01T05:14:53.455Z,71.54
2022-09-01T05:15:53.642Z,73.36
2022-09-01T05:16:53.664Z,73.17
2022-09-01T05:17:53.804Z,73.23
2022-09-01T05:18:53.964Z,74.28
2022-09-01T05:19:54.074Z,74.74
2022-09-01T05:20:54.263Z,75.42
2022-09-01T05:21:54.413Z,75.35
2022-09-01T05:22:54.403Z,75.35
2022-09-01T05:23:54.563Z,76.32
2022-09-01T05:24:55.004Z,76.25
2022-09-01T05:25:54.990Z,77.09
2022-09-01T05:26:54.920Z,77.52
2022-09-01T05:27:55.033Z,77.88
2022-09-01T05:28:55.141Z,78.69
2022-09-01T05:29:55.268Z,78.62
2022-09-01T05:30:55.452Z,78.62
2022-09-01T05:31:55.591Z,78.76
2022-09-01T05:32:55.622Z,78.47
2022-09-01T05:33:55.792Z,78.25
2022-09-01T05:34:55.890Z,77.59
2022-09-01T05:35:57.168Z,77.09
2022-09-01T05:36:56.140Z,76.74
2022-09-01T05:37:56.351Z,77.38
2022-09-01T05:38:56.357Z,77.88
2022-09-01T05:39:56.460Z,78.47
2022-09-01T05:40:56.599Z,77.59
2022-09-01T05:41:56.719Z,76.53
2022-09-01T05:42:56.930Z,76.88
2022-09-01T05:44:00.527Z,77.74
2022-09-01T05:44:57.099Z,79.06
2022-09-01T05:46:06.647Z,78.99
2022-09-01T05:46:58.413Z,80.43
2022-09-01T05:47:57.687Z,83.08
2022-09-01T05:48:57.635Z,84.25
2022-09-01T05:49:57.718Z,84.68
2022-09-01T05:50:57.818Z,85.37
2022-09-01T05:51:57.957Z,86.79
2022-09-01T05:52:58.211Z,87.52
2022-09-01T05:53:58.297Z,88.92
2022-09-01T05:54:58.367Z,90.76
2022-09-01T05:55:58.466Z,95.43
2022-09-01T05:57:05.137Z,97.36
2022-09-01T05:57:59.825Z,98.28
2022-09-01T05:59:59.944Z,103.39
2022-09-01T06:00:59.071Z,103.39
2022-09-01T06:01:59.317Z,96.40
2022-09-01T06:02:59.420Z,100.65
2022-09-01T06:03:59.526Z,99.63
2022-09-01T06:04:59.516Z,94.92
2022-09-01T06:05:59.616Z,94.07
2022-09-01T06:07:08.419Z,91.26
2022-09-01T06:08:00.892Z,92.06
2022-09-01T06:09:00.204Z,94.03
2022-09-01T06:10:00.227Z,94.98
2022-09-01T06:11:00.274Z,101.44
2022-09-01T06:12:00.423Z,101.50
2022-09-01T06:13:00.641Z,110.07
2022-09-01T06:14:00.745Z,114.93
2022-09-01T06:15:00.743Z,115.96
2022-09-01T06:16:00.899Z,115.56
2022-09-01T06:17:01.093Z,112.53
2022-09-01T06:18:01.123Z,120.23
2022-09-01T06:19:01.285Z,127.48
2022-09-01T06:20:01.463Z,134.68
2022-09-01T06:21:01.464Z,137.91
2022-09-01T06:22:01.586Z,137.80
2022-09-01T06:23:01.696Z,128.17
2022-09-01T06:24:01.915Z,122.61
2022-09-01T06:25:02.975Z,129.06
2022-09-01T06:26:02.052Z,137.46
2022-09-01T06:27:02.172Z,140.47
2022-09-01T06:28:02.264Z,151.57
2022-09-01T06:29:02.442Z,160.46
2022-09-01T06:30:02.491Z,164.25
2022-09-01T06:31:02.621Z,174.92
2022-09-01T06:32:02.723Z,184.80
2022-09-01T06:33:02.909Z,181.19
2022-09-01T06:34:03.055Z,188.29
2022-09-01T06:35:03.291Z,196.16
2022-09-01T06:36:03.293Z,208.51
2022-09-01T06:37:03.415Z,210.78
2022-09-01T06:38:03.516Z,214.93
2022-09-01T06:39:03.682Z,215.49
2022-09-01T06:40:03.810Z,216.20
2022-09-01T06:41:03.844Z,209.17
2022-09-01T06:42:06.057Z,220.86
2022-09-01T06:43:04.031Z,229.19
2022-09-01T06:44:04.330Z,231.45
2022-09-01T06:45:04.490Z,238.17
2022-09-01T06:46:04.437Z,244.01
2022-09-01T06:47:04.580Z,246.40
2022-09-01T06:48:04.647Z,249.77
2022-09-01T06:49:04.868Z,254.82
2022-09-01T06:50:04.910Z,256.01
2022-09-01T06:51:21.862Z,259.04
2022-09-01T06:52:06.373Z,263.83
2022-09-01T06:54:10.852Z,263.83
2022-09-01T06:55:07.879Z,255.81
2022-09-01T06:56:05.641Z,247.70
2022-09-01T06:58:07.166Z,249.58
2022-09-01T06:59:06.340Z,251.88
2022-09-01T07:00:06.116Z,261.31
2022-09-01T07:01:06.287Z,260.27
2022-09-01T07:02:06.448Z,264.90
2022-09-01T07:03:06.517Z,275.35
2022-09-01T07:04:12.776Z,284.17
2022-09-01T07:05:07.799Z,282.70
2022-09-01T07:06:06.951Z,282.94
2022-09-01T07:08:08.187Z,292.53
2022-09-01T07:10:23.727Z,291.23
2022-09-01T07:12:08.911Z,286.90
2022-09-01T07:12:25.088Z,291.49
2022-09-01T07:13:08.766Z,287.91
2022-09-01T07:14:15.859Z,283.92
2022-09-01T07:17:24.567Z,278.38
2022-09-01T07:18:09.387Z,278.62
2022-09-01T07:19:08.497Z,276.27
2022-09-01T07:20:24.480Z,276.04
2022-09-01T07:21:38.786Z,280.76
2022-09-01T07:22:35.254Z,274.88
2022-09-01T07:23:09.991Z,269.91
2022-09-01T07:24:10.713Z,279.33
2022-09-01T07:25:11.769Z,293.05
2022-09-01T07:26:09.414Z,305.89
2022-09-01T07:27:09.625Z,320.54
2022-09-01T07:28:09.595Z,331.21
2022-09-01T07:29:09.705Z,335.62
2022-09-01T07:30:09.826Z,333.23
2022-09-01T07:35:11.569Z,349.93
2022-09-01T07:36:26.860Z,351.06
2022-09-01T07:42:59.454Z,289.94
2022-09-01T07:43:12.424Z,359.52
2022-09-01T07:44:11.554Z,361.10
2022-09-01T07:45:28.014Z,361.50
2022-09-01T07:47:51.786Z,362.70
2022-09-01T07:48:36.093Z,361.90
2022-09-01T07:50:37.505Z,364.31
2022-09-01T07:52:13.699Z,368.81
2022-09-01T07:53:12.918Z,376.00
2022-09-01T07:54:12.833Z,372.58
2022-09-01T07:55:12.943Z,370.06
2022-09-01T07:56:13.054Z,365.93
2022-09-01T07:57:13.401Z,348.82
2022-09-01T07:58:13.308Z,350.68
2022-09-01T07:59:15.344Z,346.97
2022-09-01T08:00:13.492Z,352.19
2022-09-01T08:01:13.592Z,349.93
2022-09-01T08:02:13.985Z,356.01
2022-09-01T08:03:14.002Z,363.50
2022-09-01T08:04:13.962Z,362.30
2022-09-01T08:05:14.054Z,363.50
2022-09-01T08:06:14.234Z,370.06
2022-09-01T08:07:15.960Z,369.23
2022-09-01T08:08:24.998Z,365.12
2022-09-01T08:09:32.812Z,368.40
2022-09-01T08:10:20.296Z,370.06
2022-09-01T08:11:14.812Z,373.43
2022-09-01T08:12:14.905Z,370.90
2022-09-01T08:13:15.707Z,373.01
2022-09-01T08:14:18.272Z,376.43
2022-09-01T08:15:40.409Z,375.14
2022-09-01T08:16:16.425Z,374.71
2022-09-01T08:17:18.003Z,382.58
2022-09-01T08:18:16.724Z,384.12
2022-09-01T08:19:16.924Z,381.70
2022-09-01T08:20:15.910Z,385.23
2022-09-01T08:21:16.002Z,392.02
2022-09-01T08:22:16.461Z,406.85
2022-09-01T08:23:16.313Z,401.22
2022-09-01T08:24:16.440Z,403.41
2022-09-01T08:25:16.541Z,407.10
2022-09-01T08:26:16.651Z,402.68
2022-09-01T08:27:16.863Z,412.64
2022-09-01T08:28:17.224Z,420.71
2022-09-01T08:29:18.001Z,419.92
2022-09-01T08:30:17.152Z,414.44
2022-09-01T08:31:17.280Z,414.18
2022-09-01T08:32:17.564Z,411.37
2022-09-01T08:33:17.503Z,405.62
2022-09-01T08:34:17.641Z,403.90
2022-09-01T08:35:17.791Z,404.88
2022-09-01T08:36:21.594Z,404.39
2022-09-01T08:37:19.288Z,404.63
2022-09-01T08:38:18.157Z,405.86
2022-09-01T08:39:18.230Z,400.26
2022-09-01T08:40:18.457Z,396.92
2022-09-01T08:41:18.425Z,394.58
2022-09-01T08:42:18.660Z,389.73
2022-09-01T08:43:18.850Z,388.14
2022-09-01T08:44:19.323Z,389.28
2022-09-01T08:45:18.962Z,392.48
2022-09-01T08:46:19.087Z,394.81
2022-09-01T08:47:28.694Z,404.63
2022-09-01T08:49:09.852Z,411.37
2022-09-01T08:49:28.152Z,419.92
2022-09-01T08:50:20.531Z,419.92
2022-09-01T08:51:20.517Z,418.86
2022-09-01T08:52:19.822Z,411.12
2022-09-01T08:53:20.579Z,404.63
2022-09-01T08:54:29.276Z,406.85
2022-09-01T08:55:22.044Z,409.85
2022-09-01T08:56:20.328Z,413.67
2022-09-01T08:57:20.439Z,414.95
2022-09-01T08:58:20.684Z,407.35
2022-09-01T08:59:20.801Z,415.47
2022-09-01T09:00:20.850Z,405.12
2022-09-01T09:01:20.976Z,401.22
2022-09-01T09:02:21.111Z,401.22
2022-09-01T09:03:21.234Z,400.02
2022-09-01T09:04:21.488Z,392.25
2022-09-01T09:05:21.448Z,395.28
2022-09-01T09:06:21.562Z,400.02
2022-09-01T09:07:21.649Z,406.61
2022-09-01T09:08:21.808Z,400.26
2022-09-01T09:09:32.352Z,392.95
2022-09-01T09:10:23.058Z,380.83
2022-09-01T09:11:22.191Z,402.19
2022-09-01T09:12:22.369Z,421.25
2022-09-01T09:13:22.518Z,441.32
2022-09-01T09:14:22.893Z,454.25
2022-09-01T09:15:22.767Z,463.08
2022-09-01T09:16:22.934Z,461.80
2022-09-01T09:17:22.958Z,457.99
2022-09-01T09:18:39.223Z,460.84
2022-09-01T09:19:24.298Z,463.40
2022-09-01T09:20:23.336Z,465.02
2022-09-01T09:21:23.457Z,466.64
2022-09-01T09:22:23.597Z,479.05
2022-09-01T09:23:23.850Z,488.16
2022-09-01T09:24:23.827Z,492.86
2022-09-01T09:25:23.926Z,506.33
2022-09-01T09:26:24.066Z,516.52
2022-09-01T09:27:24.215Z,515.33
2022-09-01T09:28:25.683Z,516.92
2022-09-01T09:29:24.488Z,523.83
2022-09-01T09:30:24.829Z,527.14
2022-09-01T09:31:24.756Z,541.26
2022-09-01T09:32:35.510Z,544.80
2022-09-01T09:33:47.847Z,547.03
2022-09-01T09:34:26.285Z,568.48
2022-09-01T09:35:25.215Z,569.46
2022-09-01T09:36:25.324Z,577.84
2022-09-01T09:37:25.445Z,580.36
2022-09-01T09:38:25.566Z,583.92
2022-09-01T09:39:25.656Z,561.78
2022-09-01T09:40:26.109Z,575.35
2022-09-01T09:41:27.160Z,580.86
2022-09-01T09:42:29.891Z,595.92
2022-09-01T09:43:28.203Z,597.52
2022-09-01T09:44:26.347Z,589.60
2022-09-01T09:45:26.557Z,587.52
2022-09-01T09:46:26.667Z,598.06
2022-09-01T09:47:42.813Z,605.66
2022-09-01T09:48:28.925Z,614.59
2022-09-01T09:49:35.212Z,612.34
2022-09-01T09:50:28.233Z,622.63
2022-09-01T09:51:28.915Z,624.38
2022-09-01T09:52:27.285Z,632.07
2022-09-01T09:53:27.383Z,629.68
2022-09-01T09:54:27.606Z,622.63
2022-09-01T09:55:27.667Z,633.27
2022-09-01T09:56:27.765Z,623.79
2022-09-01T09:57:27.905Z,628.49
2022-09-01T09:58:28.013Z,638.73
2022-09-01T09:59:53.650Z,635.08
2022-09-01T10:00:29.268Z,638.12
2022-09-01T10:01:28.467Z,647.41
2022-09-01T10:02:28.554Z,651.84
2022-09-01T10:03:29.093Z,655.04
2022-09-01T10:04:28.873Z,660.89
2022-09-01T10:05:30.057Z,658.28
2022-09-01T10:06:28.957Z,657.63
2022-09-01T10:07:29.129Z,653.12
2022-09-01T10:08:29.254Z,653.76
2022-09-01T10:09:29.583Z,667.50
2022-09-01T10:10:29.513Z,679.06
2022-09-01T10:11:35.403Z,685.34
2022-09-01T10:12:30.792Z,681.14
2022-09-01T10:13:32.453Z,705.64
2022-09-01T10:14:51.968Z,702.67
2022-09-01T10:15:31.252Z,712.43
2022-09-01T10:16:32.124Z,720.90
2022-09-01T10:17:30.498Z,724.82
2022-09-01T10:18:30.560Z,720.12
2022-09-01T10:19:35.545Z,710.91
2022-09-01T10:20:31.801Z,717.02
2022-09-01T10:21:30.904Z,719.34
2022-09-01T10:22:32.848Z,709.40
2022-09-01T10:23:31.670Z,707.14
2022-09-01T10:24:31.256Z,707.14
2022-09-01T10:25:32.491Z,709.40
2022-09-01T10:26:31.451Z,710.91
2022-09-01T10:27:31.732Z,719.34
2022-09-01T10:28:31.740Z,715.49
2022-09-01T10:29:34.790Z,740.92
2022-09-01T10:30:32.098Z,752.54
2022-09-01T10:31:32.753Z,758.09
2022-09-01T10:32:38.261Z,772.12
2022-09-01T10:33:33.402Z,768.57
2022-09-01T10:34:32.520Z,779.33
2022-09-01T10:35:32.620Z,786.68
2022-09-01T10:36:32.719Z,795.12
2022-09-01T10:37:32.957Z,797.49
2022-09-01T10:38:33.250Z,796.06
2022-09-01T10:39:36.795Z,812.04
2022-09-01T10:40:34.246Z,817.01
2022-09-01T10:41:35.698Z,827.65
2022-09-01T10:42:33.628Z,841.21
2022-09-01T10:43:36.229Z,853.03
2022-09-01T10:44:33.659Z,859.63
2022-09-01T10:45:33.758Z,849.24
2022-09-01T10:46:42.263Z,839.09
2022-09-01T10:47:35.112Z,841.21
2022-09-01T10:48:46.278Z,848.70
2022-09-01T10:49:35.260Z,861.29
2022-09-01T10:50:35.825Z,873.12
2022-09-01T10:51:38.257Z,879.45
2022-09-01T10:52:35.289Z,874.84
2022-09-01T10:53:34.918Z,891.78
2022-09-01T10:54:37.238Z,894.77
2022-09-01T10:55:34.999Z,878.29
2022-09-01T10:56:36.540Z,883.52
2022-09-01T10:57:35.227Z,901.42
2022-09-01T10:59:41.901Z,929.02
2022-09-01T11:00:37.250Z,955.62
2022-09-01T11:01:47.860Z,955.62
2022-09-01T11:02:42.352Z,968.09
2022-09-01T11:03:47.110Z,976.59
2022-09-01T11:04:37.125Z,983.06
2022-09-01T11:05:36.146Z,991.83
2022-09-01T11:06:36.315Z,988.89
2022-09-01T11:08:00.088Z,1013.67
2022-09-01T11:08:37.677Z,1007.55
2022-09-01T11:09:36.666Z,1000.00
2022-09-01T11:10:36.805Z,1007.55
2022-09-01T11:11:36.995Z,1022.99
2022-09-01T11:12:37.056Z,1036.49
2022-09-01T11:13:37.144Z,1055.33
2022-09-01T11:14:37.276Z,1060.36
2022-09-01T11:15:37.385Z,1048.70
2022-09-01T11:16:53.215Z,1027.71
2022-09-01T11:17:38.706Z,1017.53
2022-09-01T11:18:37.733Z,1003.01
2022-09-01T11:19:37.880Z,1019.08
2022-09-01T11:20:37.973Z,1036.49
2022-09-01T11:21:38.297Z,1036.49
2022-09-01T11:22:38.325Z,1036.49
2022-09-01T11:23:38.364Z,1039.72
2022-09-01T11:24:38.473Z,1033.28
2022-09-01T11:25:39.489Z,1037.30
2022-09-01T11:26:38.773Z,1034.08
2022-09-01T11:27:39.092Z,1039.72
2022-09-01T11:28:38.994Z,1025.34
2022-09-01T11:29:39.101Z,1022.99
2022-09-01T11:30:39.261Z,1023.77
2022-09-01T11:31:39.392Z,1012.90
2022-09-01T11:32:44.885Z,1011.36
2022-09-01T11:33:40.566Z,1004.51
2022-09-01T11:34:39.694Z,1012.90
2022-09-01T11:35:39.801Z,1023.77
2022-09-01T11:36:39.913Z,1046.24
2022-09-01T11:37:40.052Z,1038.91
2022-09-01T11:38:40.202Z,1038.91
2022-09-01T11:39:40.311Z,1044.60
2022-09-01T11:40:40.490Z,1057.84
2022-09-01T11:41:40.531Z,1052.01
2022-09-01T11:42:40.660Z,1047.88
2022-09-01T11:43:41.824Z,1049.53
2022-09-01T11:44:40.937Z,1056.17
2022-09-01T11:45:41.019Z,1048.70
2022-09-01T11:46:41.165Z,1048.70
2022-09-01T11:47:41.294Z,1035.69
2022-09-01T11:48:41.363Z,1038.10
2022-09-01T11:49:41.499Z,1026.13
2022-09-01T11:50:41.623Z,1026.92
2022-09-01T11:51:41.711Z,1022.99
2022-09-01T11:52:42.022Z,1039.72
2022-09-01T11:53:41.961Z,1034.88
2022-09-01T11:54:42.160Z,1038.10
2022-09-01T11:55:42.272Z,1033.28
2022-09-01T11:56:42.371Z,1026.13
2022-09-01T11:57:42.508Z,1029.30
2022-09-01T11:58:42.610Z,1026.92
2022-09-01T11:59:42.711Z,1017.53
2022-09-01T12:00:42.831Z,1004.51
2022-09-01T12:01:42.920Z,1014.44
2022-09-01T12:02:43.199Z,1010.60
2022-09-01T12:03:43.450Z,1000.75
2022-09-01T12:04:43.363Z,992.57
2022-09-01T12:05:43.472Z,976.59
2022-09-01T12:06:43.726Z,975.88
2022-09-01T12:07:43.809Z,968.09
2022-09-01T12:08:43.861Z,963.90
2022-09-01T12:09:43.984Z,971.61
2022-09-01T12:10:44.092Z,975.88
2022-09-01T12:11:44.340Z,992.57
2022-09-01T12:12:44.391Z,1006.79
2022-09-01T12:13:44.430Z,1006.03
2022-09-01T12:15:04.825Z,1012.90
2022-09-01T12:16:14.175Z,1025.34
2022-09-01T12:16:45.879Z,1038.10
2022-09-01T12:17:44.930Z,1051.18
2022-09-01T12:18:45.039Z,1036.49
2022-09-01T12:19:45.148Z,1022.99
2022-09-01T12:20:45.322Z,1006.79
2022-09-01T12:21:45.389Z,999.25
2022-09-01T12:22:45.701Z,987.43
2022-09-01T12:23:45.637Z,997.01
2022-09-01T12:24:45.799Z,993.30
2022-09-01T12:25:45.909Z,999.25
2022-09-01T12:26:46.019Z,989.62
2022-09-01T12:27:46.309Z,990.36
2022-09-01T12:28:46.239Z,985.24
2022-09-01T12:29:46.396Z,989.62
2022-09-01T12:30:46.479Z,997.01
2022-09-01T12:31:46.737Z,993.30
2022-09-01T12:32:46.898Z,990.36
2022-09-01T12:33:47.137Z,1006.03
2022-09-01T12:34:47.015Z,993.30
2022-09-01T12:35:47.118Z,992.57
2022-09-01T12:37:47.473Z,982.34
2022-09-01T12:38:47.478Z,982.34
2022-09-01T12:39:47.600Z,994.78
2022-09-01T12:40:48.382Z,988.16
2022-09-01T12:41:48.590Z,954.93
2022-09-01T12:42:47.960Z,914.38
2022-09-01T12:43:52.026Z,935.53
2022-09-01T12:44:50.621Z,940.80
2022-09-01T12:45:48.382Z,906.93
2022-09-01T12:46:48.427Z,912.51
2022-09-01T12:47:50.243Z,911.89
2022-09-01T12:48:49.559Z,911.26
2022-09-01T12:49:51.996Z,920.05
2022-09-01T12:50:48.916Z,925.80
2022-09-01T12:51:49.057Z,920.05
2022-09-01T12:52:49.743Z,929.66
2022-09-01T12:53:49.368Z,923.24
2022-09-01T12:54:49.417Z,936.18
2022-09-01T12:55:49.537Z,940.14
2022-09-01T12:56:49.637Z,928.37
2022-09-01T12:57:49.729Z,922.60